Buckhurst Hill, United Kingdom
Current Conditions -  °F | °C
As of 2:20 PM on Monday 26 Jan 2015 (Local Time) from EGLC Reporting Station
Scattered Clouds Scattered Clouds  
Wind Chill: 43°   Ceiling: Unl
Heat Index: 48°   Visibility: 6mi
Dew Point: 36°   Wind: 13mph
Humidity: 62%   Direction: 310°NW
Pressure: 30.21"   Gusts: NA
Location:  51.62°N, 0.05°E
Report Text: EGLC 261420Z 31011KT 9999 SCT030 09/02 Q1023
Loading
Personal Weather Stations






























Interactive Weather Map New forecast layout! Learn more

10-Day Weather Forecast

Advertisements
Track Severe Weather on mobile